Contact Us:
Email: info@sawbill.com
Phone: (218)663-7150
Fax: (218)663-7980
Mail: 4620 Sawbill Trail
Box 2129
Tofte, MN 55615


Powered by
Movable Type 3.15
 
Sawbill Weather History Archives: January 2008
Current Sawbill Weather History | « December 2007 | February 2008 »


Date

High
Temperature

Low
Temperature

Barometric
Pressure

Relative
Humidity 7AM

9 AM
Temperature

Moisture

Snow

1/31/08 5 -8 30.14 68% -4 0
1/30/08 -8 -19 30.21 65% -8 0
1/29/08 18 -22 29.68 65% -19 .06" .5"
1/28/08 33 18 29.21 65% 18 .24" Trace
1/27/08 32 19 29.29 92% 27 0
1/26/08 25 8 29.74 74% 15 Trace Trace
1/25/08 22 7 29.74 73% 10 Trace Trace
1/24/08 10 -1 29.94 73% 3 0
1/23/08 8 -19 29.88 73% -14 0
1/22/08 7 -18 29.88 73% -13 Trace Trace
1/21/08 -1 -16 29.65 73% -3 .1" .5"
1/20/08 -7 -21 30.18 73% -9 0
1/19/08 -10 -23 30.09 73% -10 0
1/18/08 -3 -21 29.91 73% -18 0
1/17/08 12 -5 29.77 73% -3 0
1/16/08 22 -3 29.86 78% 0 Trace Trace
1/15/08 21 14 29.80 82% 19 Trace Trace
1/14/08 18 -5 30.01 79% 3 0
1/13/08 23 6 30.03 77% 6 .05" .5"
1/12/08 28 20 29.91 82% 20 .3" 5.5"
1/11/08 31 22 29.51 97% 22 .35" 5.5"
1/10/08 30 25 29.59 93% 29 .04" .5"
1/9/08 25 9 29.92 85% 18 0
1/8/08 33 22 29.89 88% 24 0
1/7/08 33 24 29.68 96% 30 Trace Trace
1/6/08 36 19 29.53 95% 33 0
1/5/08 33 22 29.47 98% 33 .03"
1/4/08 25 14 29.56 89% 24 Trace Trace
1/3/08 22 8 29.85 84% 15 0
1/2/08 20 -2 29.83 68% 19 0
1/1/08 16 -5 30.45 75% -3 0
 


Home I Trip Planning I Rentals and Outfitting I Reservations I Campgrounds I Sawbill Store I Sawbill News I Contact

© 1997 - 2017, Sawbill Canoe Outfitters, Inc. I Privacy Policy